Pemaquid Point Lighthouse, ME

43° 50' 13"N, 69° 30' 22"W, Elevation 40 ft.
Eastern Time

Hourly observations for the last 72 hours

Date Time Temperature (°F) Humi-
dity

(%)
Wind
(mph)
Pressure Rain (in) Sun
(W/m2)
UV ET
(in)
Air Dew 6 Hour 1 Hr 3 Hr 6 Hr Day
Alt
(in)
Sea
Level

(mb)
Max Min
17 01:00 56.7 54.4 92 N 5 G 6 30.32 1026.9 0.00 0 0.0 0.000
17 00:00 56.3 53.7 91 NNE 3 G 4 30.34 1027.3 0.04 0 0.0 0.112
16 23:00 57.8 54.0 87 SE 0 G 1 30.35 1027.7 0.04 0 0.0 0.111
16 22:00 61.5 57.3 86 SE 5 G 8 30.35 1028.0 0.04 0 0.0 0.110
16 21:00 61.6 57.4 86 SE 5 G 8 30.35 1028.0 0.04 0 0.0 0.109
16 20:00 61.5 57.3 69.0 61.5 86 E 4 G 6 30.33 1027.2 0.04 0 0.0 0.108
16 19:00 62.6 58.0 85 E 4 G 7 30.31 1026.5 0.04 0 0.0 0.106
16 18:00 64.9 59.3 82 E 5 G 7 30.30 1026.1 0.04 127 0.0 0.100
16 17:00 65.9 59.6 80 E 7 G 9 30.29 1025.7 0.04 353 0.7 0.089
16 16:00 68.2 60.7 77 ESE 8 G 10 30.27 1025.3 0.04 538 1.5 0.074
16 15:00 68.7 61.6 78 E 3 G 4 30.27 1025.2 0.04 689 2.2 0.057
16 14:00 67.1 59.7 67.1 62.3 77 ENE 4 G 8 30.27 1025.2 0.04 610 3.3 0.039
16 13:00 65.4 57.6 76 NE 8 G 12 30.28 1025.4 0.04 301 2.5 0.025
16 12:00 64.6 57.9 79 NNE 8 G 13 30.28 1025.4 0.04 411 2.4 0.015
16 11:00 63.5 57.2 80 NNE 6 G 11 30.28 1025.3 0.04 304 1.7 0.008
16 10:00 62.8 56.5 80 N 5 G 11 30.26 1024.7 0.04 163 1.0 0.004
16 09:00 62.7 58.5 86 N 7 G 11 30.21 1023.0 0.04 162 0.8 0.001
16 08:00 62.9 60.2 64.8 62.4 91 N 3 G 8 30.19 1022.5 0.04 0.04 70 0.0 0.000
16 07:00 62.8 60.4 92 NNW 3 G 8 30.17 1021.9 0.04 14 0.0 0.000
16 06:00 63.7 61.9 94 NNW 7 G 9 30.14 1020.5 0.04 0 0.0 0.000
16 05:00 64.0 62.2 94 NW 4 G 7 30.11 1019.7 0.04 0.04 0.04 0 0.0 0.000
16 04:00 64.2 62.4 94 NE 2 G 5 30.06 1018.0 0.00 0 0.0 0.000
16 03:00 64.7 63.2 95 NW 2 G 6 30.06 1018.1 0.00 0 0.0 0.000
16 02:00 62.6 60.5 66.8 62.6 93 WSW 2 G 3 30.03 1017.0 0.00 0 0.0 0.000
16 01:00 63.4 61.3 93 WNW 4 G 5 30.01 1016.4 0.00 0 0.0 0.000
16 00:00 63.4 61.0 92 W 0 G 1 30.00 1015.8 0.00 0 0.0 0.072
15 23:00 66.3 63.9 92 WNW 0 G 2 29.99 1015.5 0.00 0 0.0 0.072
15 22:00 66.3 64.2 93 WNW 7 G 9 29.98 1015.2 0.00 0 0.0 0.072
15 21:00 65.5 63.1 92 W 4 G 5 29.95 1014.4 0.00 0 0.0 0.072
15 20:00 66.3 63.6 69.8 65.5 91 W 2 G 4 29.93 1013.6 0.00 0 0.0 0.071
15 19:00 69.7 67.0 91 W 5 G 16 29.92 1013.3 0.00 0 0.0 0.070
15 18:00 65.9 63.8 93 SSW 16 G 20 29.86 1011.3 0.00 35 0.0 0.067
15 17:00 66.5 64.1 92 SSW 16 G 19 29.86 1011.1 0.00 114 0.5 0.063
15 16:00 66.3 63.9 92 SSW 10 G 17 29.86 1011.3 0.00 60 0.5 0.058
15 15:00 66.8 64.4 92 SSW 12 G 15 29.86 1011.2 0.00 244 1.2 0.048
15 14:00 66.1 64.0 66.9 63.8 93 SSW 16 G 20 29.88 1011.9 0.00 287 1.6 0.042
15 13:00 66.5 64.4 93 SSW 16 G 18 29.91 1012.9 0.00 257 1.6 0.035
15 12:00 66.4 64.0 92 SSW 10 G 15 29.92 1013.4 0.00 339 1.9 0.027
15 11:00 66.5 64.1 92 S 13 G 16 29.94 1013.9 0.00 462 2.0 0.019
15 10:00 64.8 62.7 93 S 15 G 18 29.96 1014.6 0.00 271 1.3 0.014
15 09:00 64.1 61.7 92 S 17 G 20 29.95 1014.4 0.00 84 0.5 0.011
15 08:00 63.9 60.9 63.9 62.7 90 S 19 G 23 29.97 1014.8 0.00 39 0.0 0.009
15 07:00 63.4 59.8 88 SSE 20 G 24 29.97 1014.9 0.00 16 0.0 0.007
15 06:00 63.4 59.8 88 SSE 18 G 23 29.99 1015.5 0.00 0 0.0 0.005
15 05:00 63.1 59.8 89 SSE 16 G 19 29.99 1015.6 0.00 0 0.0 0.004
15 04:00 62.9 59.9 90 SSE 16 G 19 29.99 1015.6 0.00 0 0.0 0.003
15 03:00 62.9 60.2 91 SSE 11 G 14 30.01 1016.2 0.00 0 0.0 0.002
15 02:00 63.1 60.1 63.1 62.4 90 SSE 10 G 15 30.02 1016.7 0.00 0 0.0 0.001
15 01:00 63.0 59.7 89 SSE 13 G 16 30.03 1017.1 0.00 0 0.0 0.000
15 00:00 62.9 59.6 89 SSE 12 G 15 30.04 1017.3 0.00 0 0.0 0.126
14 23:00 62.8 59.2 88 SSE 8 G 11 30.06 1018.0 0.00 0 0.0 0.125
14 22:00 62.8 59.2 88 SSE 10 G 13 30.05 1017.5 0.00 0 0.0 0.124
14 21:00 62.5 58.9 88 SSE 11 G 13 30.05 1017.8 0.00 0 0.0 0.123
14 20:00 62.7 58.8 66.6 62.4 87 SSE 12 G 13 30.06 1017.8 0.00 0 0.0 0.122
14 19:00 62.5 58.6 87 SSE 8 G 11 30.06 1018.1 0.00 0 0.0 0.120
14 18:00 63.2 58.3 84 S 9 G 11 30.06 1018.0 0.00 113 0.0 0.114
14 17:00 63.6 58.3 83 S 10 G 12 30.06 1018.0 0.00 380 0.7 0.105
14 16:00 64.1 58.2 81 S 8 G 11 30.07 1018.3 0.00 454 1.4 0.092
14 15:00 66.3 60.0 80 SSE 9 G 13 30.07 1018.2 0.00 696 2.3 0.077
14 14:00 66.5 58.7 66.9 58.3 76 SSE 10 G 13 30.07 1018.4 0.00 816 3.7 0.058
14 13:00 65.0 56.9 75 SE 11 G 14 30.08 1018.6 0.00 657 3.9 0.039
14 12:00 66.3 58.5 76 SSE 7 G 9 30.08 1018.7 0.00 796 3.7 0.020
14 11:00 65.3 58.3 78 SE 3 G 6 30.09 1019.0 0.00 733 2.9 0.013
14 10:00 63.8 56.5 77 ENE 4 G 7 30.10 1019.4 0.00 42 0.0 0.011
14 09:00 61.5 53.5 75 N 4 G 12 30.08 1018.8 0.00 37 0.0 0.009
14 08:00 58.3 52.2 58.7 55.2 80 NNW 7 G 12 30.08 1018.5 0.00 30 0.0 0.007
14 07:00 56.4 50.6 81 NNW 8 G 13 30.06 1018.0 0.00 21 0.0 0.006
14 06:00 55.9 50.8 83 NW 7 G 10 30.05 1017.5 0.00 0 0.0 0.005
14 05:00 56.7 51.6 83 WNW 6 G 9 30.04 1017.2 0.00 0 0.0 0.004
14 04:00 56.7 51.9 84 WNW 8 G 11 30.02 1016.6 0.00 0 0.0 0.003
14 03:00 57.5 51.7 81 NW 7 G 9 30.01 1016.4 0.00 0 0.0 0.002
14 02:00 58.5 52.0 64.8 58.4 79 WNW 6 G 8 30.00 1016.1 0.00 0 0.0 0.001

Data generated by WxSolution Version 1.9.1.8, Build 2020.02.16.